createdAt,value
2023-05-22T00:00:10.662Z,26.71
2023-05-22T00:00:40.766Z,26.73
2023-05-22T00:01:40.691Z,26.71
2023-05-22T00:02:10.850Z,26.73
2023-05-22T00:02:40.809Z,26.74
2023-05-22T00:03:10.872Z,26.73
2023-05-22T00:03:40.909Z,26.71
2023-05-22T00:04:10.929Z,26.73
2023-05-22T00:04:41.021Z,26.73
2023-05-22T00:05:11.002Z,26.74
2023-05-22T00:05:41.157Z,26.71
2023-05-22T00:06:11.132Z,26.71
2023-05-22T00:06:41.160Z,26.73
2023-05-22T00:07:11.183Z,26.71
2023-05-22T00:07:41.198Z,26.73
2023-05-22T00:08:11.222Z,26.73
2023-05-22T00:08:41.269Z,26.73
2023-05-22T00:09:11.307Z,26.74
2023-05-22T00:09:41.341Z,26.71
2023-05-22T00:10:11.374Z,26.73
2023-05-22T00:10:41.513Z,26.73
2023-05-22T00:11:11.399Z,26.73
2023-05-22T00:11:41.446Z,26.74
2023-05-22T00:12:11.473Z,26.71
2023-05-22T00:12:41.510Z,26.71
2023-05-22T00:13:11.526Z,26.73
2023-05-22T00:13:41.567Z,26.73
2023-05-22T00:14:11.596Z,26.74
2023-05-22T00:14:41.611Z,26.73
2023-05-22T00:15:11.664Z,26.74
2023-05-22T00:15:41.687Z,26.73
2023-05-22T00:16:11.697Z,26.73
2023-05-22T00:16:41.764Z,26.75
2023-05-22T00:17:11.843Z,26.73
2023-05-22T00:17:41.886Z,26.74
2023-05-22T00:18:11.968Z,26.71
2023-05-22T00:18:41.993Z,26.73
2023-05-22T00:19:12.101Z,26.74
2023-05-22T00:20:12.073Z,26.71
2023-05-22T00:20:42.063Z,26.74
2023-05-22T00:21:12.170Z,26.74
2023-05-22T00:21:42.287Z,26.74
2023-05-22T00:22:12.398Z,26.71
2023-05-22T00:22:42.536Z,26.74
2023-05-22T00:23:15.266Z,26.75
2023-05-22T00:23:42.541Z,26.73
2023-05-22T00:24:12.532Z,26.73
2023-05-22T00:24:42.643Z,26.74
2023-05-22T00:25:12.759Z,26.74
2023-05-22T00:25:42.899Z,26.73
2023-05-22T00:26:12.872Z,26.73
2023-05-22T00:26:42.993Z,26.73
2023-05-22T00:27:13.102Z,26.74
2023-05-22T00:27:43.242Z,26.73
2023-05-22T00:28:13.233Z,26.70
2023-05-22T00:28:43.265Z,26.71
2023-05-22T00:29:13.284Z,26.74
2023-05-22T00:29:43.310Z,26.71
2023-05-22T00:30:13.329Z,26.71
2023-05-22T00:30:43.361Z,26.71
2023-05-22T00:31:13.416Z,26.71
2023-05-22T00:31:43.413Z,26.71
2023-05-22T00:32:13.440Z,26.71
2023-05-22T00:32:43.495Z,26.73
2023-05-22T00:33:13.558Z,26.70
2023-05-22T00:33:43.618Z,26.68
2023-05-22T00:34:13.661Z,26.71
2023-05-22T00:34:43.786Z,26.71
2023-05-22T00:35:13.698Z,26.68
2023-05-22T00:35:43.721Z,26.71
2023-05-22T00:36:13.752Z,26.71
2023-05-22T00:36:43.786Z,26.71
2023-05-22T00:37:13.814Z,26.70
2023-05-22T00:37:43.839Z,26.70
2023-05-22T00:38:13.870Z,26.71
2023-05-22T00:38:43.884Z,26.70
2023-05-22T00:39:13.911Z,26.68
2023-05-22T00:39:43.937Z,26.70
2023-05-22T00:40:13.988Z,26.68
2023-05-22T00:40:44.004Z,26.68
2023-05-22T00:41:14.032Z,26.71
2023-05-22T00:41:44.095Z,26.70
2023-05-22T00:42:14.141Z,26.71
2023-05-22T00:42:44.150Z,26.68
2023-05-22T00:43:14.170Z,26.68
2023-05-22T00:43:44.207Z,26.70
2023-05-22T00:44:14.225Z,26.68
2023-05-22T00:44:44.248Z,26.71
2023-05-22T00:45:14.295Z,26.70
2023-05-22T00:45:44.328Z,26.67
2023-05-22T00:46:14.491Z,26.67
2023-05-22T00:46:44.523Z,26.67
2023-05-22T00:47:14.426Z,26.70
2023-05-22T00:47:44.513Z,26.70
2023-05-22T00:48:14.525Z,26.68
2023-05-22T00:48:44.552Z,26.70
2023-05-22T00:49:14.573Z,26.68
2023-05-22T00:49:44.592Z,26.68
2023-05-22T00:50:14.619Z,26.71
2023-05-22T00:50:44.664Z,26.68
2023-05-22T00:51:14.685Z,26.67
2023-05-22T00:51:44.708Z,26.68
2023-05-22T00:52:14.743Z,26.73
2023-05-22T00:52:44.750Z,26.67
2023-05-22T00:53:14.775Z,26.68
2023-05-22T00:53:44.792Z,26.67
2023-05-22T00:54:14.814Z,26.67
2023-05-22T00:54:44.837Z,26.68
2023-05-22T00:55:15.180Z,26.71
2023-05-22T00:55:44.948Z,26.68
2023-05-22T00:56:44.983Z,26.68
2023-05-22T00:57:15.011Z,26.67
2023-05-22T00:57:45.054Z,26.67
2023-05-22T00:58:15.072Z,26.68
2023-05-22T00:58:45.100Z,26.70
2023-05-22T00:59:15.123Z,26.67
2023-05-22T00:59:45.148Z,26.67
2023-05-22T01:00:15.201Z,26.68
2023-05-22T01:00:45.210Z,26.68
2023-05-22T01:01:15.254Z,26.67
2023-05-22T01:01:45.330Z,26.68
2023-05-22T01:02:15.476Z,26.67
2023-05-22T01:02:45.526Z,26.71
2023-05-22T01:03:15.531Z,26.67
2023-05-22T01:03:45.755Z,26.65
2023-05-22T01:04:15.714Z,26.67
2023-05-22T01:04:45.523Z,26.71
2023-05-22T01:05:15.548Z,26.67
2023-05-22T01:05:45.569Z,26.68
2023-05-22T01:06:15.592Z,26.68
2023-05-22T01:06:45.618Z,26.67
2023-05-22T01:07:15.645Z,26.68
2023-05-22T01:07:45.672Z,26.67
2023-05-22T01:08:15.692Z,26.67
2023-05-22T01:08:45.719Z,26.68
2023-05-22T01:09:15.756Z,26.65
2023-05-22T01:09:45.784Z,26.68
2023-05-22T01:10:15.811Z,26.70
2023-05-22T01:10:45.831Z,26.68
2023-05-22T01:11:15.856Z,26.68
2023-05-22T01:11:45.880Z,26.67
2023-05-22T01:12:15.911Z,26.70
2023-05-22T01:12:45.941Z,26.68
2023-05-22T01:13:15.972Z,26.68
2023-05-22T01:13:46.017Z,26.68
2023-05-22T01:14:16.055Z,26.67
2023-05-22T01:14:46.088Z,26.68
2023-05-22T01:15:16.102Z,26.68
2023-05-22T01:15:46.128Z,26.67
2023-05-22T01:16:16.201Z,26.67
2023-05-22T01:16:46.325Z,26.67
2023-05-22T01:17:16.294Z,26.67
2023-05-22T01:17:46.432Z,26.68
2023-05-22T01:18:16.408Z,26.68
2023-05-22T01:18:46.460Z,26.67
2023-05-22T01:19:16.580Z,26.70
2023-05-22T01:19:46.584Z,26.67
2023-05-22T01:20:16.690Z,26.65
2023-05-22T01:20:48.678Z,26.65
2023-05-22T01:21:16.865Z,26.68
2023-05-22T01:21:46.980Z,26.67
2023-05-22T01:22:17.095Z,26.65
2023-05-22T01:22:47.205Z,26.67
2023-05-22T01:23:17.307Z,26.65
2023-05-22T01:23:47.460Z,26.64
2023-05-22T01:24:17.431Z,26.65
2023-05-22T01:24:47.545Z,26.65
2023-05-22T01:25:17.664Z,26.68
2023-05-22T01:25:47.774Z,26.68
2023-05-22T01:26:17.889Z,26.65
2023-05-22T01:26:48.004Z,26.67
2023-05-22T01:27:18.003Z,26.64
2023-05-22T01:28:18.100Z,26.65
2023-05-22T01:28:48.135Z,26.68
2023-05-22T01:29:18.163Z,26.68
2023-05-22T01:29:48.192Z,26.65
2023-05-22T01:30:18.211Z,26.67
2023-05-22T01:30:48.230Z,26.65
2023-05-22T01:31:18.264Z,26.65
2023-05-22T01:31:48.283Z,26.64
2023-05-22T01:32:18.312Z,26.67
2023-05-22T01:32:48.457Z,26.65
2023-05-22T01:33:18.551Z,26.65
2023-05-22T01:33:48.708Z,26.67
2023-05-22T01:34:18.570Z,26.65
2023-05-22T01:34:48.602Z,26.64
2023-05-22T01:35:18.623Z,26.65
2023-05-22T01:35:48.646Z,26.64
2023-05-22T01:36:18.675Z,26.65
2023-05-22T01:36:48.719Z,26.65
2023-05-22T01:37:18.750Z,26.65
2023-05-22T01:37:48.787Z,26.65
2023-05-22T01:38:18.810Z,26.65
2023-05-22T01:38:48.844Z,26.64
2023-05-22T01:39:18.864Z,26.65
2023-05-22T01:39:48.931Z,26.64
2023-05-22T01:40:18.924Z,26.64
2023-05-22T01:40:48.952Z,26.64
2023-05-22T01:41:18.974Z,26.64
2023-05-22T01:41:49.004Z,26.67
2023-05-22T01:42:19.042Z,26.67
2023-05-22T01:42:49.074Z,26.67
2023-05-22T01:43:19.104Z,26.64
2023-05-22T01:43:49.124Z,26.63
2023-05-22T01:44:19.153Z,26.65
2023-05-22T01:44:49.190Z,26.65
2023-05-22T01:45:19.212Z,26.64
2023-05-22T01:45:49.299Z,26.65
2023-05-22T01:46:19.378Z,26.65
2023-05-22T01:46:49.409Z,26.64
2023-05-22T01:47:19.465Z,26.64
2023-05-22T01:47:49.511Z,26.64
2023-05-22T01:48:19.576Z,26.65
2023-05-22T01:48:49.574Z,26.64
2023-05-22T01:49:19.597Z,26.64
2023-05-22T01:49:49.618Z,26.65
2023-05-22T01:50:19.649Z,26.65
2023-05-22T01:50:49.684Z,26.65
2023-05-22T01:51:19.709Z,26.64
2023-05-22T01:51:49.736Z,26.64
2023-05-22T01:52:19.759Z,26.64
2023-05-22T01:52:49.814Z,26.64
2023-05-22T01:53:19.834Z,26.64
2023-05-22T01:53:49.862Z,26.65
2023-05-22T01:54:19.884Z,26.64
2023-05-22T01:54:49.907Z,26.65
2023-05-22T01:55:19.932Z,26.67
2023-05-22T01:55:49.962Z,26.65
2023-05-22T01:56:20.001Z,26.67
2023-05-22T01:56:50.035Z,26.65
2023-05-22T01:57:20.077Z,26.64
2023-05-22T01:57:50.084Z,26.64
2023-05-22T01:58:20.114Z,26.64
2023-05-22T01:58:50.142Z,26.64
2023-05-22T01:59:20.176Z,26.65
2023-05-22T01:59:50.205Z,26.64
2023-05-22T02:00:20.223Z,26.63
2023-05-22T02:00:50.576Z,26.64
2023-05-22T02:01:20.323Z,26.64
2023-05-22T02:01:50.408Z,26.64
2023-05-22T02:02:20.475Z,26.65
2023-05-22T02:02:50.592Z,26.63
2023-05-22T02:03:20.796Z,26.64
2023-05-22T02:03:50.675Z,26.64
2023-05-22T02:04:20.676Z,26.64
2023-05-22T02:04:50.692Z,26.64
2023-05-22T02:05:20.736Z,26.64
2023-05-22T02:05:50.755Z,26.64
2023-05-22T02:06:20.781Z,26.63
2023-05-22T02:06:50.814Z,26.64
2023-05-22T02:07:20.842Z,26.63
2023-05-22T02:07:50.889Z,26.63
2023-05-22T02:08:20.896Z,26.64
2023-05-22T02:08:50.911Z,26.63
2023-05-22T02:09:20.936Z,26.64
2023-05-22T02:09:50.962Z,26.64
2023-05-22T02:10:21.016Z,26.65
2023-05-22T02:10:51.022Z,26.63
2023-05-22T02:11:21.049Z,26.64
2023-05-22T02:11:51.076Z,26.63
2023-05-22T02:12:21.123Z,26.63
2023-05-22T02:12:51.130Z,26.64
2023-05-22T02:13:21.150Z,26.64
2023-05-22T02:13:51.179Z,26.64
2023-05-22T02:14:21.201Z,26.64
2023-05-22T02:14:51.261Z,26.63
2023-05-22T02:15:21.291Z,26.63
2023-05-22T02:15:51.377Z,26.65
2023-05-22T02:16:21.530Z,26.64
2023-05-22T02:16:51.500Z,26.64
2023-05-22T02:17:21.524Z,26.64
2023-05-22T02:17:51.569Z,26.65
2023-05-22T02:18:21.570Z,26.64
2023-05-22T02:18:51.706Z,26.67
2023-05-22T02:19:21.910Z,26.65
2023-05-22T02:19:51.797Z,26.63
2023-05-22T02:20:51.861Z,26.65
2023-05-22T02:21:21.964Z,26.64
2023-05-22T02:21:52.076Z,26.65
2023-05-22T02:22:22.202Z,26.64
2023-05-22T02:22:52.198Z,26.65
2023-05-22T02:23:22.313Z,26.64
2023-05-22T02:23:52.426Z,26.65
2023-05-22T02:24:22.550Z,26.65
2023-05-22T02:24:52.543Z,26.64
2023-05-22T02:25:22.650Z,26.67
2023-05-22T02:25:52.770Z,26.64
2023-05-22T02:26:22.886Z,26.65
2023-05-22T02:26:52.953Z,26.65
2023-05-22T02:27:23.053Z,26.65
2023-05-22T02:27:53.168Z,26.68
2023-05-22T02:28:23.184Z,26.65
2023-05-22T02:28:53.215Z,26.67
2023-05-22T02:29:23.253Z,26.64
2023-05-22T02:29:53.282Z,26.64
2023-05-22T02:30:23.303Z,26.68
2023-05-22T02:30:53.444Z,26.65
2023-05-22T02:31:23.441Z,26.65
2023-05-22T02:31:53.462Z,26.65
2023-05-22T02:32:23.539Z,26.65
2023-05-22T02:32:53.628Z,26.64
2023-05-22T02:33:23.674Z,26.67
2023-05-22T02:33:53.735Z,26.65
2023-05-22T02:34:23.749Z,26.65
2023-05-22T02:34:54.834Z,26.68
2023-05-22T02:35:23.833Z,26.65
2023-05-22T02:35:53.871Z,26.65
2023-05-22T02:36:23.881Z,26.65
2023-05-22T02:36:53.901Z,26.68
2023-05-22T02:37:23.942Z,26.67
2023-05-22T02:37:53.956Z,26.67
2023-05-22T02:38:23.999Z,26.67
2023-05-22T02:38:54.015Z,26.67
2023-05-22T02:39:24.044Z,26.65
2023-05-22T02:39:54.066Z,26.68
2023-05-22T02:40:24.094Z,26.65
2023-05-22T02:40:54.122Z,26.65
2023-05-22T02:41:24.142Z,26.67
2023-05-22T02:41:54.169Z,26.67
2023-05-22T02:42:24.206Z,26.70
2023-05-22T02:42:54.236Z,26.65
2023-05-22T02:43:24.273Z,26.67
2023-05-22T02:43:54.305Z,26.65
2023-05-22T02:44:24.325Z,26.67
2023-05-22T02:44:54.346Z,26.67
2023-05-22T02:45:24.372Z,26.65
2023-05-22T02:45:54.409Z,26.65
2023-05-22T02:46:24.450Z,26.64
2023-05-22T02:46:54.610Z,26.67
2023-05-22T02:47:24.567Z,26.64
2023-05-22T02:47:54.636Z,26.64
2023-05-22T02:48:24.656Z,26.65
2023-05-22T02:48:54.672Z,26.65
2023-05-22T02:49:24.700Z,26.64
2023-05-22T02:49:54.733Z,26.64
2023-05-22T02:50:24.782Z,26.65
2023-05-22T02:50:54.776Z,26.65
2023-05-22T02:51:24.808Z,26.67
2023-05-22T02:51:54.827Z,26.65
2023-05-22T02:52:24.872Z,26.63
2023-05-22T02:52:54.894Z,26.65
2023-05-22T02:53:24.923Z,26.63
2023-05-22T02:53:54.945Z,26.64
2023-05-22T02:54:24.960Z,26.65
2023-05-22T02:54:54.988Z,26.63
2023-05-22T02:55:25.022Z,26.64
2023-05-22T02:55:55.036Z,26.64
2023-05-22T02:56:25.064Z,26.63
2023-05-22T02:56:55.095Z,26.64
2023-05-22T02:57:25.134Z,26.65
2023-05-22T02:57:55.171Z,26.63
2023-05-22T02:58:25.212Z,26.61
2023-05-22T02:58:55.221Z,26.65
2023-05-22T02:59:25.252Z,26.61
2023-05-22T02:59:55.278Z,26.63
2023-05-22T03:00:25.314Z,26.63
2023-05-22T03:00:55.328Z,26.63
2023-05-22T03:01:25.392Z,26.61
2023-05-22T03:01:55.466Z,26.63
2023-05-22T03:02:25.621Z,26.63
2023-05-22T03:02:55.535Z,26.63
2023-05-22T03:03:55.837Z,26.60
2023-05-22T03:04:25.711Z,26.64
2023-05-22T03:04:55.718Z,26.60
2023-05-22T03:05:25.764Z,26.61
2023-05-22T03:05:55.793Z,26.60
2023-05-22T03:06:25.821Z,26.61
2023-05-22T03:06:55.861Z,26.61
2023-05-22T03:07:25.894Z,26.61
2023-05-22T03:07:55.919Z,26.60
2023-05-22T03:08:25.938Z,26.63
2023-05-22T03:08:55.968Z,26.61
2023-05-22T03:09:25.990Z,26.61
2023-05-22T03:09:56.016Z,26.63
2023-05-22T03:10:26.040Z,26.63
2023-05-22T03:10:56.077Z,26.61
2023-05-22T03:11:26.112Z,26.61
2023-05-22T03:11:56.136Z,26.61
2023-05-22T03:12:26.162Z,26.61
2023-05-22T03:12:56.204Z,26.61
2023-05-22T03:13:26.216Z,26.63
2023-05-22T03:13:56.216Z,26.61
2023-05-22T03:14:26.242Z,26.60
2023-05-22T03:14:56.274Z,26.60
2023-05-22T03:15:26.301Z,26.61
2023-05-22T03:15:56.425Z,26.61
2023-05-22T03:16:26.437Z,26.58
2023-05-22T03:16:56.377Z,26.58
2023-05-22T03:17:26.440Z,26.60
2023-05-22T03:17:56.533Z,26.60
2023-05-22T03:18:27.460Z,26.60
2023-05-22T03:18:56.677Z,26.58
2023-05-22T03:19:27.159Z,26.60
2023-05-22T03:19:56.896Z,26.61
2023-05-22T03:20:27.029Z,26.60
2023-05-22T03:20:57.020Z,26.58
2023-05-22T03:21:27.215Z,26.60
2023-05-22T03:21:57.169Z,26.60
2023-05-22T03:22:27.203Z,26.57
2023-05-22T03:22:57.170Z,26.57
2023-05-22T03:23:27.294Z,26.55
2023-05-22T03:23:57.305Z,26.57
2023-05-22T03:24:27.418Z,26.57
2023-05-22T03:24:57.701Z,26.58
2023-05-22T03:25:27.580Z,26.57
2023-05-22T03:25:57.568Z,26.60
2023-05-22T03:26:27.692Z,26.61
2023-05-22T03:26:57.788Z,26.61
2023-05-22T03:27:27.903Z,26.57
2023-05-22T03:27:58.024Z,26.57
2023-05-22T03:28:28.034Z,26.58
2023-05-22T03:28:58.118Z,26.57
2023-05-22T03:29:28.136Z,26.61
2023-05-22T03:29:58.171Z,26.61
2023-05-22T03:30:28.186Z,26.60
2023-05-22T03:30:58.208Z,26.60
2023-05-22T03:31:28.239Z,26.58
2023-05-22T03:31:58.263Z,26.64
2023-05-22T03:32:28.328Z,26.63
2023-05-22T03:32:58.377Z,26.63
2023-05-22T03:33:28.429Z,26.64
2023-05-22T03:33:58.538Z,26.63
2023-05-22T03:34:28.552Z,26.65
2023-05-22T03:34:58.591Z,26.63
2023-05-22T03:35:28.605Z,26.65
2023-05-22T03:35:58.631Z,26.65
2023-05-22T03:36:29.937Z,26.64
2023-05-22T03:36:58.721Z,26.64
2023-05-22T03:37:28.737Z,26.65
2023-05-22T03:37:58.759Z,26.67
2023-05-22T03:38:28.793Z,26.70
2023-05-22T03:38:58.820Z,26.67
2023-05-22T03:39:28.841Z,26.67
2023-05-22T03:39:58.874Z,26.68
2023-05-22T03:40:28.887Z,26.70
2023-05-22T03:40:58.922Z,26.70
2023-05-22T03:41:28.945Z,26.67
2023-05-22T03:41:58.971Z,26.70
2023-05-22T03:42:28.993Z,26.68
2023-05-22T03:42:59.039Z,26.68
2023-05-22T03:43:29.112Z,26.68
2023-05-22T03:43:59.175Z,26.71
2023-05-22T03:44:29.204Z,26.70
2023-05-22T03:44:59.234Z,26.70
2023-05-22T03:45:29.292Z,26.70
2023-05-22T03:45:59.363Z,26.70
2023-05-22T03:46:29.695Z,26.70
2023-05-22T03:46:59.415Z,26.70
2023-05-22T03:47:29.467Z,26.71
2023-05-22T03:47:59.522Z,26.73
2023-05-22T03:48:29.561Z,26.71
2023-05-22T03:48:59.575Z,26.73
2023-05-22T03:49:29.598Z,26.70
2023-05-22T03:49:59.629Z,26.70
2023-05-22T03:50:29.652Z,26.70
2023-05-22T03:50:59.675Z,26.70
2023-05-22T03:51:29.698Z,26.71
2023-05-22T03:51:59.724Z,26.70
2023-05-22T03:52:30.020Z,26.71
2023-05-22T03:52:59.761Z,26.75
2023-05-22T03:53:59.885Z,26.70
2023-05-22T03:54:29.918Z,26.71
2023-05-22T03:54:59.953Z,26.73
2023-05-22T03:55:29.972Z,26.73
2023-05-22T03:56:00.000Z,26.74
2023-05-22T03:56:30.031Z,26.73
2023-05-22T03:57:00.054Z,26.73
2023-05-22T03:57:30.079Z,26.71
2023-05-22T03:58:00.127Z,26.68
2023-05-22T03:58:30.124Z,26.68
2023-05-22T03:59:00.146Z,26.70
2023-05-22T03:59:30.185Z,26.68
2023-05-22T04:00:00.199Z,26.71
2023-05-22T04:00:30.232Z,26.71
2023-05-22T04:01:00.255Z,26.70
2023-05-22T04:01:30.295Z,26.73
2023-05-22T04:02:00.360Z,26.70
2023-05-22T04:02:30.504Z,26.73
2023-05-22T04:03:00.540Z,26.73
2023-05-22T04:03:30.608Z,26.73
2023-05-22T04:04:00.664Z,26.74
2023-05-22T04:04:30.660Z,26.77
2023-05-22T04:05:00.745Z,26.75
2023-05-22T04:05:30.848Z,26.74
2023-05-22T04:06:00.784Z,26.78
2023-05-22T04:06:30.821Z,26.78
2023-05-22T04:07:00.854Z,26.80
2023-05-22T04:07:30.875Z,26.77
2023-05-22T04:08:01.070Z,26.78
2023-05-22T04:08:30.918Z,26.74
2023-05-22T04:09:30.943Z,26.73
2023-05-22T04:10:00.959Z,26.74
2023-05-22T04:10:30.986Z,26.74
2023-05-22T04:11:01.034Z,26.71
2023-05-22T04:11:31.070Z,26.71
2023-05-22T04:12:01.105Z,26.70
2023-05-22T04:12:31.110Z,26.70
2023-05-22T04:13:01.136Z,26.70
2023-05-22T04:13:31.165Z,26.70
2023-05-22T04:14:01.184Z,26.71
2023-05-22T04:14:31.205Z,26.70
2023-05-22T04:15:01.226Z,26.73
2023-05-22T04:15:31.350Z,26.70
2023-05-22T04:16:01.403Z,26.70
2023-05-22T04:16:31.469Z,26.70
2023-05-22T04:17:01.417Z,26.71
2023-05-22T04:17:31.482Z,26.67
2023-05-22T04:18:01.570Z,26.67
2023-05-22T04:18:31.599Z,26.68
2023-05-22T04:19:01.770Z,26.70
2023-05-22T04:19:31.820Z,26.70
2023-05-22T04:20:01.834Z,26.71
2023-05-22T04:20:31.936Z,26.73
2023-05-22T04:21:01.926Z,26.71
2023-05-22T04:21:31.977Z,26.74
2023-05-22T04:22:02.101Z,26.75
2023-05-22T04:22:32.202Z,26.75
2023-05-22T04:23:02.317Z,26.77
2023-05-22T04:23:32.458Z,26.77
2023-05-22T04:24:02.539Z,26.78
2023-05-22T04:24:32.650Z,26.77
2023-05-22T04:25:02.779Z,26.80
2023-05-22T04:25:32.763Z,26.80
2023-05-22T04:26:02.873Z,26.81
2023-05-22T04:26:32.985Z,26.81
2023-05-22T04:27:03.112Z,26.81
2023-05-22T04:27:33.218Z,26.85
2023-05-22T04:28:03.331Z,26.81
2023-05-22T04:28:33.352Z,26.87
2023-05-22T04:29:03.375Z,26.84
2023-05-22T04:29:33.417Z,26.84
2023-05-22T04:30:03.468Z,26.88
2023-05-22T04:30:33.478Z,26.88
2023-05-22T04:31:03.519Z,26.88
2023-05-22T04:31:33.578Z,26.88
2023-05-22T04:32:03.634Z,26.88
2023-05-22T04:32:33.680Z,26.90
2023-05-22T04:33:03.750Z,26.87
2023-05-22T04:33:33.785Z,26.88
2023-05-22T04:34:03.828Z,26.90
2023-05-22T04:34:33.864Z,26.88
2023-05-22T04:35:03.902Z,26.90
2023-05-22T04:35:33.920Z,26.87
2023-05-22T04:36:03.950Z,26.91
2023-05-22T04:36:33.977Z,26.90
2023-05-22T04:37:03.996Z,26.91
2023-05-22T04:37:34.039Z,26.90
2023-05-22T04:38:04.058Z,26.91
2023-05-22T04:38:34.073Z,26.90
2023-05-22T04:39:04.200Z,26.84
2023-05-22T04:39:34.217Z,26.82
2023-05-22T04:40:04.240Z,26.85
2023-05-22T04:40:34.306Z,26.85
2023-05-22T04:41:04.364Z,26.84
2023-05-22T04:41:34.457Z,26.84
2023-05-22T04:42:04.463Z,26.82
2023-05-22T04:42:34.509Z,26.78
2023-05-22T04:43:04.531Z,26.80
2023-05-22T04:43:34.562Z,26.81
2023-05-22T04:44:04.595Z,26.80
2023-05-22T04:44:34.627Z,26.82
2023-05-22T04:45:04.643Z,26.81
2023-05-22T04:45:34.662Z,26.82
2023-05-22T04:46:04.707Z,26.82
2023-05-22T04:46:34.832Z,26.82
2023-05-22T04:47:07.447Z,26.81
2023-05-22T04:47:34.903Z,26.80
2023-05-22T04:48:04.998Z,26.78
2023-05-22T04:48:35.036Z,26.80
2023-05-22T04:49:05.065Z,26.81
2023-05-22T04:49:35.082Z,26.80
2023-05-22T04:50:05.125Z,26.78
2023-05-22T04:50:35.159Z,26.78
2023-05-22T04:51:05.188Z,26.82
2023-05-22T04:51:35.303Z,26.82
2023-05-22T04:52:05.319Z,26.78
2023-05-22T04:52:35.347Z,26.75
2023-05-22T04:53:05.376Z,26.73
2023-05-22T04:53:35.412Z,26.74
2023-05-22T04:54:05.445Z,26.74
2023-05-22T04:54:35.542Z,26.74
2023-05-22T04:55:06.121Z,26.73
2023-05-22T04:55:35.667Z,26.74
2023-05-22T04:56:05.676Z,26.75
2023-05-22T04:56:37.211Z,26.75
2023-05-22T04:57:05.754Z,26.75
2023-05-22T04:57:35.781Z,26.77
2023-05-22T04:58:05.875Z,26.78
2023-05-22T04:58:35.894Z,26.77
2023-05-22T04:59:05.933Z,26.77
2023-05-22T04:59:35.982Z,26.77
2023-05-22T05:00:06.023Z,26.78
2023-05-22T05:00:36.106Z,26.75
2023-05-22T05:01:06.271Z,26.77
2023-05-22T05:01:36.219Z,26.78
2023-05-22T05:02:06.276Z,26.75
2023-05-22T05:02:36.331Z,26.77
2023-05-22T05:03:06.455Z,26.75
2023-05-22T05:03:36.559Z,26.80
2023-05-22T05:04:06.753Z,26.74
2023-05-22T05:04:36.556Z,26.80
2023-05-22T05:05:06.608Z,26.80
2023-05-22T05:05:36.665Z,26.77
2023-05-22T05:06:06.692Z,26.78
2023-05-22T05:06:36.713Z,26.80
2023-05-22T05:07:06.998Z,26.77
2023-05-22T05:07:36.789Z,26.80
2023-05-22T05:08:36.796Z,26.80
2023-05-22T05:09:06.836Z,26.80
2023-05-22T05:09:36.861Z,26.78
2023-05-22T05:10:07.343Z,26.80
2023-05-22T05:10:36.992Z,26.80
2023-05-22T05:11:37.080Z,26.81
2023-05-22T05:12:07.120Z,26.78
2023-05-22T05:12:37.137Z,26.80
2023-05-22T05:13:07.160Z,26.80
2023-05-22T05:13:37.181Z,26.80
2023-05-22T05:14:07.207Z,26.80
2023-05-22T05:14:37.229Z,26.78
2023-05-22T05:15:07.261Z,26.77
2023-05-22T05:15:37.279Z,26.81
2023-05-22T05:16:07.463Z,26.80
2023-05-22T05:16:37.380Z,26.81
2023-05-22T05:17:07.433Z,26.81
2023-05-22T05:17:37.475Z,26.81
2023-05-22T05:18:07.549Z,26.80
2023-05-22T05:18:37.571Z,26.81
2023-05-22T05:19:07.740Z,26.80
2023-05-22T05:19:37.778Z,26.78
2023-05-22T05:20:07.776Z,26.80
2023-05-22T05:20:38.029Z,26.78
2023-05-22T05:21:07.946Z,26.78
2023-05-22T05:21:37.944Z,26.81
2023-05-22T05:22:07.950Z,26.81
2023-05-22T05:22:37.957Z,26.78
2023-05-22T05:23:08.069Z,26.81
2023-05-22T05:23:38.184Z,26.82
2023-05-22T05:24:08.296Z,26.82
2023-05-22T05:24:38.312Z,26.81
2023-05-22T05:26:17.533Z,26.77
2023-05-22T05:26:47.481Z,26.78
2023-05-22T05:27:17.548Z,26.74
2023-05-22T05:27:47.623Z,26.80
2023-05-22T05:28:17.698Z,26.77
2023-05-22T05:28:47.779Z,26.75
2023-05-22T05:29:17.860Z,26.80
2023-05-22T05:29:47.932Z,26.78
2023-05-22T05:30:20.332Z,26.75
2023-05-22T05:30:48.124Z,26.78
2023-05-22T05:31:18.256Z,26.77
2023-05-22T05:31:48.307Z,26.78
2023-05-22T05:32:18.368Z,26.77
2023-05-22T05:32:48.405Z,26.78
2023-05-22T05:33:18.476Z,26.80
2023-05-22T05:33:48.551Z,26.77
2023-05-22T05:34:18.665Z,26.75
2023-05-22T05:34:48.753Z,26.77
2023-05-22T05:35:18.881Z,26.74
2023-05-22T05:35:48.842Z,26.77
2023-05-22T05:36:18.939Z,26.77
2023-05-22T05:36:49.052Z,26.78
2023-05-22T05:37:19.161Z,26.78
2023-05-22T05:37:49.270Z,26.77
2023-05-22T05:38:19.394Z,26.78
2023-05-22T05:38:49.515Z,26.77
2023-05-22T05:39:19.642Z,26.78
2023-05-22T05:39:49.646Z,26.78
2023-05-22T05:40:19.750Z,26.80
2023-05-22T05:40:49.932Z,26.80
2023-05-22T05:41:19.909Z,26.78
2023-05-22T05:41:50.039Z,26.78
2023-05-22T05:42:20.138Z,26.81
2023-05-22T05:42:50.260Z,26.82
2023-05-22T05:43:20.278Z,26.81
2023-05-22T05:43:50.269Z,26.80
2023-05-22T05:44:20.289Z,26.84
2023-05-22T05:44:50.286Z,26.82
2023-05-22T05:45:20.399Z,26.82
2023-05-22T05:45:50.408Z,26.84
2023-05-22T05:46:20.532Z,26.84
2023-05-22T05:46:50.578Z,26.85
2023-05-22T05:47:20.727Z,26.85
2023-05-22T05:47:50.725Z,26.85
2023-05-22T05:48:20.702Z,26.85
2023-05-22T05:48:50.719Z,26.84
2023-05-22T05:49:20.702Z,26.85
2023-05-22T05:50:20.831Z,26.87
2023-05-22T05:50:50.825Z,26.87
2023-05-22T05:51:50.866Z,26.85
2023-05-22T05:52:20.976Z,26.88
2023-05-22T05:52:51.038Z,26.87
2023-05-22T05:53:21.152Z,26.90
2023-05-22T05:53:51.146Z,26.90
2023-05-22T05:54:21.254Z,26.88
2023-05-22T05:54:51.372Z,26.90
2023-05-22T05:55:21.492Z,26.90
2023-05-22T05:55:51.602Z,26.90
2023-05-22T05:56:21.720Z,26.88
2023-05-22T05:56:51.821Z,26.85
2023-05-22T05:57:22.009Z,26.87
2023-05-22T05:57:52.021Z,26.84
2023-05-22T05:58:22.031Z,26.87
2023-05-22T05:59:22.081Z,26.81
2023-05-22T05:59:52.193Z,26.80
2023-05-22T06:00:22.209Z,26.78
2023-05-22T06:00:52.319Z,26.75
2023-05-22T06:01:22.429Z,26.77
2023-05-22T06:01:52.541Z,26.77
2023-05-22T06:02:22.734Z,26.80
2023-05-22T06:02:52.846Z,26.80
2023-05-22T06:03:22.991Z,26.80
2023-05-22T06:03:53.219Z,26.78
2023-05-22T06:04:22.879Z,26.80
2023-05-22T06:04:53.024Z,26.84
2023-05-22T06:05:23.178Z,26.82
2023-05-22T06:05:53.062Z,26.82
2023-05-22T06:06:23.085Z,26.84
2023-05-22T06:06:53.240Z,26.85
2023-05-22T06:07:23.238Z,26.81
2023-05-22T06:07:53.348Z,26.81
2023-05-22T06:08:23.480Z,26.80
2023-05-22T06:08:53.463Z,26.80
2023-05-22T06:09:23.574Z,26.81
2023-05-22T06:09:53.690Z,26.81
2023-05-22T06:10:23.684Z,26.81
2023-05-22T06:10:53.811Z,26.82
2023-05-22T06:11:23.908Z,26.84
2023-05-22T06:11:54.027Z,26.87
2023-05-22T06:12:24.160Z,26.87
2023-05-22T06:12:54.177Z,26.88
2023-05-22T06:13:54.233Z,26.87
2023-05-22T06:14:24.352Z,26.88
2023-05-22T06:14:54.343Z,26.88
2023-05-22T06:15:24.460Z,26.90
2023-05-22T06:15:54.602Z,26.90
2023-05-22T06:16:24.758Z,26.90
2023-05-22T06:16:54.682Z,26.90
2023-05-22T06:17:24.739Z,26.91
2023-05-22T06:17:54.784Z,26.90
2023-05-22T06:18:24.773Z,26.91
2023-05-22T06:18:54.926Z,26.91
2023-05-22T06:19:25.012Z,26.91
2023-05-22T06:19:54.993Z,26.92
2023-05-22T06:20:25.122Z,26.92
2023-05-22T06:20:55.111Z,26.88
2023-05-22T06:21:25.246Z,26.90
2023-05-22T06:21:55.230Z,26.85
2023-05-22T06:22:25.356Z,26.82
2023-05-22T06:22:55.465Z,26.85
2023-05-22T06:23:25.579Z,26.84
2023-05-22T06:23:55.582Z,26.84
2023-05-22T06:24:25.589Z,26.84
2023-05-22T06:25:25.657Z,26.87
2023-05-22T06:25:55.767Z,26.85
2023-05-22T06:26:25.845Z,26.87
2023-05-22T06:26:55.907Z,26.87
2023-05-22T06:27:26.001Z,26.87
2023-05-22T06:27:56.135Z,26.87
2023-05-22T06:28:26.175Z,26.88
2023-05-22T06:28:56.252Z,26.88
2023-05-22T06:29:26.382Z,26.91
2023-05-22T06:29:56.671Z,26.90
2023-05-22T06:30:38.882Z,26.92
2023-05-22T06:30:56.640Z,26.92
2023-05-22T06:31:26.729Z,26.94
2023-05-22T06:31:56.816Z,26.92
2023-05-22T06:32:26.933Z,26.92
2023-05-22T06:32:56.977Z,26.94
2023-05-22T06:33:26.987Z,26.90
2023-05-22T06:33:57.032Z,26.91
2023-05-22T06:34:27.186Z,26.92
2023-05-22T06:35:01.530Z,26.91
2023-05-22T06:35:27.080Z,26.91